sensor_id;sensor_type;location;lat;lon;timestamp;P1;durP1;ratioP1;P2;durP2;ratioP2
42846;SDS011;75159;49.916;14.536;2024-01-27T00:03:31;3.42;;;0.75;;
42846;SDS011;75159;49.916;14.536;2024-01-27T00:13:52;1.48;;;0.57;;
42846;SDS011;75159;49.916;14.536;2024-01-27T00:24:13;3.00;;;0.77;;
42846;SDS011;75159;49.916;14.536;2024-01-27T00:34:34;0.57;;;0.47;;
42846;SDS011;75159;49.916;14.536;2024-01-27T00:44:55;2.50;;;0.60;;
42846;SDS011;75159;49.916;14.536;2024-01-27T00:55:16;3.88;;;0.80;;
42846;SDS011;75159;49.916;14.536;2024-01-27T01:05:38;1.10;;;0.52;;
42846;SDS011;75159;49.916;14.536;2024-01-27T01:15:59;2.60;;;0.52;;
42846;SDS011;75159;49.916;14.536;2024-01-27T01:26:20;2.25;;;0.60;;
42846;SDS011;75159;49.916;14.536;2024-01-27T01:36:41;1.15;;;0.65;;
42846;SDS011;75159;49.916;14.536;2024-01-27T01:47:02;1.20;;;0.70;;
42846;SDS011;75159;49.916;14.536;2024-01-27T01:57:23;2.20;;;0.98;;
42846;SDS011;75159;49.916;14.536;2024-01-27T02:07:44;1.13;;;0.50;;
42846;SDS011;75159;49.916;14.536;2024-01-27T02:18:05;0.50;;;0.50;;
42846;SDS011;75159;49.916;14.536;2024-01-27T02:28:26;1.88;;;0.50;;
42846;SDS011;75159;49.916;14.536;2024-01-27T02:38:47;2.05;;;0.50;;
42846;SDS011;75159;49.916;14.536;2024-01-27T02:49:08;2.58;;;0.50;;
42846;SDS011;75159;49.916;14.536;2024-01-27T02:59:29;2.17;;;0.60;;
42846;SDS011;75159;49.916;14.536;2024-01-27T03:09:50;0.50;;;0.25;;
42846;SDS011;75159;49.916;14.536;2024-01-27T03:20:11;2.70;;;0.80;;
42846;SDS011;75159;49.916;14.536;2024-01-27T03:30:32;1.20;;;0.60;;
42846;SDS011;75159;49.916;14.536;2024-01-27T03:40:53;0.90;;;0.57;;
42846;SDS011;75159;49.916;14.536;2024-01-27T03:51:14;3.20;;;0.55;;
42846;SDS011;75159;49.916;14.536;2024-01-27T04:01:35;1.08;;;0.52;;
42846;SDS011;75159;49.916;14.536;2024-01-27T04:11:56;3.63;;;0.73;;
42846;SDS011;75159;49.916;14.536;2024-01-27T04:22:16;1.40;;;0.40;;
42846;SDS011;75159;49.916;14.536;2024-01-27T04:32:37;2.50;;;0.60;;
42846;SDS011;75159;49.916;14.536;2024-01-27T04:42:59;1.38;;;0.45;;
42846;SDS011;75159;49.916;14.536;2024-01-27T04:53:19;2.85;;;0.60;;
42846;SDS011;75159;49.916;14.536;2024-01-27T05:03:40;3.05;;;0.60;;
42846;SDS011;75159;49.916;14.536;2024-01-27T05:14:01;2.50;;;1.13;;
42846;SDS011;75159;49.916;14.536;2024-01-27T05:24:22;3.80;;;1.13;;
42846;SDS011;75159;49.916;14.536;2024-01-27T05:34:43;2.75;;;0.63;;
42846;SDS011;75159;49.916;14.536;2024-01-27T05:45:04;3.05;;;0.70;;
42846;SDS011;75159;49.916;14.536;2024-01-27T05:55:25;4.28;;;0.90;;
42846;SDS011;75159;49.916;14.536;2024-01-27T06:05:46;1.40;;;0.70;;
42846;SDS011;75159;49.916;14.536;2024-01-27T06:16:07;2.53;;;0.77;;
42846;SDS011;75159;49.916;14.536;2024-01-27T06:26:31;5.45;;;0.55;;
42846;SDS011;75159;49.916;14.536;2024-01-27T06:36:52;4.05;;;0.75;;
42846;SDS011;75159;49.916;14.536;2024-01-27T06:47:13;3.58;;;1.00;;
42846;SDS011;75159;49.916;14.536;2024-01-27T06:57:34;1.88;;;0.82;;
42846;SDS011;75159;49.916;14.536;2024-01-27T07:07:55;1.80;;;0.57;;
42846;SDS011;75159;49.916;14.536;2024-01-27T07:18:16;2.80;;;0.90;;
42846;SDS011;75159;49.916;14.536;2024-01-27T07:28:38;3.03;;;0.73;;
42846;SDS011;75159;49.916;14.536;2024-01-27T07:39:00;4.93;;;0.93;;
42846;SDS011;75159;49.916;14.536;2024-01-27T07:49:21;6.05;;;1.00;;
42846;SDS011;75159;49.916;14.536;2024-01-27T07:59:42;3.55;;;0.77;;
42846;SDS011;75159;49.916;14.536;2024-01-27T08:10:03;2.75;;;0.80;;
42846;SDS011;75159;49.916;14.536;2024-01-27T08:20:25;5.88;;;0.93;;
42846;SDS011;75159;49.916;14.536;2024-01-27T08:30:46;3.55;;;1.20;;
42846;SDS011;75159;49.916;14.536;2024-01-27T08:41:07;4.22;;;1.20;;
42846;SDS011;75159;49.916;14.536;2024-01-27T08:51:28;1.92;;;0.77;;
42846;SDS011;75159;49.916;14.536;2024-01-27T09:01:49;4.05;;;1.30;;
42846;SDS011;75159;49.916;14.536;2024-01-27T09:12:10;5.70;;;1.20;;
42846;SDS011;75159;49.916;14.536;2024-01-27T09:22:31;6.63;;;1.33;;
42846;SDS011;75159;49.916;14.536;2024-01-27T09:32:52;4.50;;;1.23;;
42846;SDS011;75159;49.916;14.536;2024-01-27T09:43:13;5.63;;;1.05;;
42846;SDS011;75159;49.916;14.536;2024-01-27T09:53:35;4.50;;;1.05;;
42846;SDS011;75159;49.916;14.536;2024-01-27T10:03:56;2.78;;;1.00;;
42846;SDS011;75159;49.916;14.536;2024-01-27T10:14:18;3.40;;;1.15;;
42846;SDS011;75159;49.916;14.536;2024-01-27T10:24:40;4.60;;;1.30;;
42846;SDS011;75159;49.916;14.536;2024-01-27T10:35:04;4.13;;;1.30;;
42846;SDS011;75159;49.916;14.536;2024-01-27T10:45:39;2.95;;;1.30;;
42846;SDS011;75159;49.916;14.536;2024-01-27T10:56:03;3.28;;;1.45;;
42846;SDS011;75159;49.916;14.536;2024-01-27T11:06:29;3.42;;;1.30;;
42846;SDS011;75159;49.916;14.536;2024-01-27T11:16:58;1.20;;;0.80;;
42846;SDS011;75159;49.916;14.536;2024-01-27T11:27:26;4.30;;;0.85;;
42846;SDS011;75159;49.916;14.536;2024-01-27T11:37:49;2.45;;;1.13;;
42846;SDS011;75159;49.916;14.536;2024-01-27T11:48:11;6.05;;;1.25;;
42846;SDS011;75159;49.916;14.536;2024-01-27T11:58:32;8.95;;;1.73;;
42846;SDS011;75159;49.916;14.536;2024-01-27T12:08:55;3.25;;;1.02;;
42846;SDS011;75159;49.916;14.536;2024-01-27T12:19:18;3.65;;;0.90;;
42846;SDS011;75159;49.916;14.536;2024-01-27T12:29:40;1.77;;;0.90;;
42846;SDS011;75159;49.916;14.536;2024-01-27T12:40:02;4.38;;;1.30;;
42846;SDS011;75159;49.916;14.536;2024-01-27T12:50:23;2.45;;;0.90;;
42846;SDS011;75159;49.916;14.536;2024-01-27T13:00:45;3.80;;;0.85;;
42846;SDS011;75159;49.916;14.536;2024-01-27T13:11:06;4.03;;;0.93;;
42846;SDS011;75159;49.916;14.536;2024-01-27T13:21:27;3.90;;;1.33;;
42846;SDS011;75159;49.916;14.536;2024-01-27T13:31:47;9.13;;;1.23;;
42846;SDS011;75159;49.916;14.536;2024-01-27T13:42:08;4.13;;;0.77;;
42846;SDS011;75159;49.916;14.536;2024-01-27T13:52:29;4.57;;;1.00;;
42846;SDS011;75159;49.916;14.536;2024-01-27T14:02:51;2.92;;;0.80;;
42846;SDS011;75159;49.916;14.536;2024-01-27T14:13:12;9.48;;;1.90;;
42846;SDS011;75159;49.916;14.536;2024-01-27T14:23:33;3.90;;;1.20;;
42846;SDS011;75159;49.916;14.536;2024-01-27T14:33:54;6.85;;;1.17;;
42846;SDS011;75159;49.916;14.536;2024-01-27T14:44:15;4.45;;;1.35;;
42846;SDS011;75159;49.916;14.536;2024-01-27T14:54:36;4.10;;;0.75;;
42846;SDS011;75159;49.916;14.536;2024-01-27T15:04:57;4.53;;;1.88;;
42846;SDS011;75159;49.916;14.536;2024-01-27T15:15:18;5.00;;;0.80;;
42846;SDS011;75159;49.916;14.536;2024-01-27T15:25:39;3.95;;;1.88;;
42846;SDS011;75159;49.916;14.536;2024-01-27T15:36:01;4.38;;;0.73;;
42846;SDS011;75159;49.916;14.536;2024-01-27T15:46:22;3.60;;;1.38;;
42846;SDS011;75159;49.916;14.536;2024-01-27T15:56:43;4.95;;;1.40;;
42846;SDS011;75159;49.916;14.536;2024-01-27T16:07:04;6.70;;;1.70;;
42846;SDS011;75159;49.916;14.536;2024-01-27T16:17:25;7.50;;;2.03;;
42846;SDS011;75159;49.916;14.536;2024-01-27T16:27:47;6.75;;;2.03;;
42846;SDS011;75159;49.916;14.536;2024-01-27T16:38:08;3.78;;;1.40;;
42846;SDS011;75159;49.916;14.536;2024-01-27T16:48:28;5.60;;;1.40;;
42846;SDS011;75159;49.916;14.536;2024-01-27T16:58:51;6.15;;;2.42;;
42846;SDS011;75159;49.916;14.536;2024-01-27T17:09:12;3.85;;;2.15;;
42846;SDS011;75159;49.916;14.536;2024-01-27T17:19:36;6.10;;;2.17;;
42846;SDS011;75159;49.916;14.536;2024-01-27T17:29:58;5.22;;;2.22;;
42846;SDS011;75159;49.916;14.536;2024-01-27T17:40:19;7.75;;;2.30;;
42846;SDS011;75159;49.916;14.536;2024-01-27T17:50:42;7.88;;;2.33;;
42846;SDS011;75159;49.916;14.536;2024-01-27T18:01:03;4.95;;;2.35;;
42846;SDS011;75159;49.916;14.536;2024-01-27T18:11:25;10.23;;;3.45;;
42846;SDS011;75159;49.916;14.536;2024-01-27T18:21:46;11.38;;;2.97;;
42846;SDS011;75159;49.916;14.536;2024-01-27T18:32:07;8.40;;;2.90;;
42846;SDS011;75159;49.916;14.536;2024-01-27T18:42:28;8.48;;;1.92;;
42846;SDS011;75159;49.916;14.536;2024-01-27T18:52:49;6.20;;;2.38;;
42846;SDS011;75159;49.916;14.536;2024-01-27T19:03:14;6.82;;;2.35;;
42846;SDS011;75159;49.916;14.536;2024-01-27T19:13:35;10.25;;;2.85;;
42846;SDS011;75159;49.916;14.536;2024-01-27T19:23:56;7.50;;;2.38;;
42846;SDS011;75159;49.916;14.536;2024-01-27T19:34:17;7.55;;;2.67;;
42846;SDS011;75159;49.916;14.536;2024-01-27T19:44:39;5.80;;;2.20;;
42846;SDS011;75159;49.916;14.536;2024-01-27T19:55:00;6.30;;;2.75;;
42846;SDS011;75159;49.916;14.536;2024-01-27T20:05:22;3.85;;;2.50;;
42846;SDS011;75159;49.916;14.536;2024-01-27T20:15:42;10.23;;;3.17;;
42846;SDS011;75159;49.916;14.536;2024-01-27T20:26:03;6.10;;;2.78;;
42846;SDS011;75159;49.916;14.536;2024-01-27T20:36:24;8.85;;;2.60;;
42846;SDS011;75159;49.916;14.536;2024-01-27T20:46:45;7.05;;;2.92;;
42846;SDS011;75159;49.916;14.536;2024-01-27T20:57:07;7.30;;;2.75;;
42846;SDS011;75159;49.916;14.536;2024-01-27T21:07:28;8.02;;;2.88;;
42846;SDS011;75159;49.916;14.536;2024-01-27T21:17:49;6.43;;;2.67;;
42846;SDS011;75159;49.916;14.536;2024-01-27T21:28:10;10.32;;;2.88;;
42846;SDS011;75159;49.916;14.536;2024-01-27T21:38:32;8.52;;;3.63;;
42846;SDS011;75159;49.916;14.536;2024-01-27T21:48:53;9.23;;;3.88;;
42846;SDS011;75159;49.916;14.536;2024-01-27T21:59:14;5.75;;;2.63;;
42846;SDS011;75159;49.916;14.536;2024-01-27T22:09:36;6.95;;;2.70;;
42846;SDS011;75159;49.916;14.536;2024-01-27T22:19:57;9.40;;;2.90;;
42846;SDS011;75159;49.916;14.536;2024-01-27T22:30:18;14.90;;;4.47;;
42846;SDS011;75159;49.916;14.536;2024-01-27T22:40:39;9.95;;;3.90;;
42846;SDS011;75159;49.916;14.536;2024-01-27T22:51:00;7.82;;;3.50;;
42846;SDS011;75159;49.916;14.536;2024-01-27T23:01:22;6.53;;;2.72;;
42846;SDS011;75159;49.916;14.536;2024-01-27T23:11:43;5.72;;;2.47;;
42846;SDS011;75159;49.916;14.536;2024-01-27T23:22:04;7.32;;;3.15;;
42846;SDS011;75159;49.916;14.536;2024-01-27T23:32:25;11.93;;;3.83;;
42846;SDS011;75159;49.916;14.536;2024-01-27T23:42:46;10.68;;;4.45;;
42846;SDS011;75159;49.916;14.536;2024-01-27T23:53:07;18.42;;;8.35;;
